createdAt,value
2023-05-10T04:32:27.331Z,100423.31
2023-05-10T04:35:30.255Z,100423.31
2023-05-10T04:38:34.171Z,100425.72
2023-05-10T04:41:36.820Z,100432.41
2023-05-10T04:44:39.474Z,100434.75
2023-05-10T04:47:42.067Z,100437.22
2023-05-10T04:50:44.620Z,100436.47
2023-05-10T04:54:01.665Z,100428.28
2023-05-10T04:57:09.266Z,100431.31
2023-05-10T05:00:12.988Z,100430.91
2023-05-10T05:03:16.211Z,100438.25
2023-05-10T05:06:18.903Z,100434.63
2023-05-10T05:09:21.447Z,100429.53
2023-05-10T05:12:24.010Z,100436.44
2023-05-10T05:15:26.676Z,100433.19
2023-05-10T05:18:29.432Z,100430.44
2023-05-10T05:21:33.297Z,100436.13
2023-05-10T05:24:39.382Z,100442.78
2023-05-10T05:27:41.995Z,100434.34
2023-05-10T05:30:44.609Z,100441.78
2023-05-10T05:33:47.391Z,100439.44
2023-05-10T05:36:49.964Z,100443.72
2023-05-10T05:39:52.561Z,100451.06
2023-05-10T05:42:55.085Z,100449.44
2023-05-10T05:45:59.241Z,100455.34
2023-05-10T05:49:01.912Z,100460.69
2023-05-10T05:52:04.729Z,100469.03
2023-05-10T05:55:07.570Z,100463.63
2023-05-10T05:58:10.150Z,100460.34
2023-05-10T06:01:12.753Z,100460.87
2023-05-10T06:04:15.464Z,100469.25
2023-05-10T06:07:18.341Z,100476.59
2023-05-10T06:10:21.454Z,100468.28
2023-05-10T06:13:23.982Z,100474.66
2023-05-10T06:16:26.630Z,100478.94
2023-05-10T06:19:29.263Z,100479.69
2023-05-10T06:22:31.813Z,100480.63
2023-05-10T06:25:34.321Z,100480.81
2023-05-10T06:28:39.461Z,100473.19
2023-05-10T06:31:42.186Z,100473.03
2023-05-10T06:34:45.727Z,100480.84
2023-05-10T06:37:48.314Z,100478.69
2023-05-10T06:40:50.926Z,100480.00
2023-05-10T06:43:53.507Z,100479.97
2023-05-10T06:46:56.886Z,100476.22
2023-05-10T06:49:59.536Z,100481.25
2023-05-10T06:53:02.942Z,100480.34
2023-05-10T06:56:06.003Z,100477.53
2023-05-10T06:59:08.892Z,100477.91
2023-05-10T07:02:11.733Z,100472.16
2023-05-10T07:05:15.322Z,100470.66
2023-05-10T07:08:18.061Z,100474.44
2023-05-10T07:11:20.655Z,100475.41
2023-05-10T07:14:23.268Z,100473.84
2023-05-10T07:17:26.237Z,100478.53
2023-05-10T07:20:29.157Z,100478.59
2023-05-10T07:23:31.774Z,100469.31
2023-05-10T07:26:34.481Z,100473.44
2023-05-10T07:29:37.416Z,100472.72
2023-05-10T07:32:40.753Z,100475.31
2023-05-10T07:35:43.759Z,100463.44
2023-05-10T07:38:46.639Z,100464.19
2023-05-10T07:41:49.300Z,100462.00
2023-05-10T07:44:52.308Z,100467.66
2023-05-10T07:47:54.896Z,100460.25
2023-05-10T07:50:57.518Z,100468.59
2023-05-10T07:54:00.233Z,100464.00
2023-05-10T07:57:03.047Z,100466.97
2023-05-10T08:00:06.580Z,100457.41
2023-05-10T08:03:09.468Z,100467.69
2023-05-10T08:06:12.370Z,100464.09
2023-05-10T08:09:15.193Z,100463.91
2023-05-10T08:12:17.910Z,100463.13
2023-05-10T08:15:20.665Z,100459.22
2023-05-10T08:18:23.879Z,100461.00
2023-05-10T08:21:27.219Z,100457.28
2023-05-10T08:24:29.850Z,100456.47
2023-05-10T08:27:32.400Z,100454.81
2023-05-10T08:30:35.215Z,100454.47
2023-05-10T08:33:37.800Z,100455.38
2023-05-10T08:36:40.298Z,100469.69
2023-05-10T08:39:42.918Z,100453.78
2023-05-10T08:43:08.909Z,100457.78
2023-05-10T08:46:11.941Z,100460.22
2023-05-10T08:49:14.913Z,100457.47
2023-05-10T08:52:17.714Z,100451.03
2023-05-10T08:55:20.347Z,100449.16
2023-05-10T08:58:23.148Z,100446.81
2023-05-10T09:01:32.151Z,100444.59
2023-05-10T09:04:36.372Z,100443.81
2023-05-10T09:07:39.633Z,100447.88
2023-05-10T09:10:43.305Z,100451.28
2023-05-10T09:13:45.873Z,100445.00
2023-05-10T09:16:48.492Z,100441.16
2023-05-10T09:19:51.038Z,100447.63
2023-05-10T09:22:53.624Z,100440.50
2023-05-10T09:26:08.311Z,100439.28
2023-05-10T09:29:10.919Z,100445.66
2023-05-10T09:32:13.802Z,100437.47
2023-05-10T09:35:18.854Z,100436.34
2023-05-10T09:38:21.933Z,100435.34
2023-05-10T09:41:25.398Z,100431.03
2023-05-10T09:44:28.258Z,100435.03
2023-05-10T09:47:33.020Z,100430.66
2023-05-10T09:50:35.667Z,100434.84
2023-05-10T09:53:38.454Z,100423.37
2023-05-10T09:56:41.789Z,100420.88
2023-05-10T09:59:44.506Z,100419.09
2023-05-10T10:02:48.849Z,100416.00
2023-05-10T10:05:52.365Z,100420.09
2023-05-10T10:08:56.691Z,100413.41
2023-05-10T10:12:03.471Z,100412.41
2023-05-10T10:15:07.837Z,100408.47
2023-05-10T10:18:12.851Z,100395.38
2023-05-10T10:21:16.449Z,100403.03
2023-05-10T10:24:19.017Z,100389.81
2023-05-10T10:27:40.290Z,100392.44
2023-05-10T10:30:43.872Z,100389.84
2023-05-10T10:34:08.277Z,100387.94
2023-05-10T10:37:10.849Z,100390.59
2023-05-10T10:40:27.076Z,100386.09
2023-05-10T10:43:29.910Z,100380.81
2023-05-10T10:46:33.294Z,100375.50
2023-05-10T10:49:42.385Z,100388.25
2023-05-10T10:52:46.027Z,100375.97
2023-05-10T10:55:49.160Z,100371.56
2023-05-10T10:58:54.950Z,100370.25
2023-05-10T11:01:57.665Z,100365.91
2023-05-10T11:05:00.441Z,100369.47
2023-05-10T11:08:14.878Z,100356.88
2023-05-10T11:11:17.470Z,100350.13
2023-05-10T11:14:22.557Z,100344.56
2023-05-10T11:17:25.659Z,100350.66
2023-05-10T11:20:40.039Z,100348.47
2023-05-10T11:23:53.396Z,100340.62
2023-05-10T11:26:56.088Z,100345.97
2023-05-10T11:29:58.722Z,100347.09
2023-05-10T11:33:04.645Z,100343.69
2023-05-10T11:36:07.787Z,100342.41
2023-05-10T11:39:10.987Z,100337.44
2023-05-10T11:42:13.550Z,100330.34
2023-05-10T11:45:16.219Z,100327.56
2023-05-10T11:48:23.409Z,100339.00
2023-05-10T11:51:26.294Z,100334.78
2023-05-10T11:54:28.863Z,100333.00
2023-05-10T11:57:32.402Z,100337.81
2023-05-10T12:00:35.026Z,100329.41
2023-05-10T12:03:37.965Z,100330.47
2023-05-10T12:06:44.024Z,100332.13
2023-05-10T12:10:04.592Z,100332.37
2023-05-10T12:13:10.302Z,100333.25
2023-05-10T12:16:27.069Z,100323.31
2023-05-10T12:19:29.735Z,100330.94
2023-05-10T12:22:36.020Z,100326.81
2023-05-10T12:25:39.633Z,100330.56
2023-05-10T12:28:42.245Z,100326.59
2023-05-10T12:31:57.842Z,100324.44
2023-05-10T12:35:00.767Z,100315.69
2023-05-10T12:38:03.351Z,100321.87
2023-05-10T12:41:21.879Z,100318.44
2023-05-10T12:44:25.263Z,100312.25
2023-05-10T12:47:48.383Z,100305.69
2023-05-10T12:50:55.089Z,100296.62
2023-05-10T12:53:57.663Z,100298.84
2023-05-10T12:57:00.232Z,100291.22
2023-05-10T13:00:02.851Z,100286.00
2023-05-10T13:03:09.176Z,100285.69
2023-05-10T13:06:11.800Z,100280.31
2023-05-10T13:09:14.340Z,100281.03
2023-05-10T13:12:16.952Z,100281.44
2023-05-10T13:15:19.524Z,100276.78
2023-05-10T13:18:22.128Z,100273.50
2023-05-10T13:21:26.174Z,100266.88
2023-05-10T13:24:28.898Z,100261.75
2023-05-10T13:27:31.521Z,100261.50
2023-05-10T13:30:34.066Z,100257.28
2023-05-10T13:33:36.615Z,100251.78
2023-05-10T13:36:39.352Z,100251.50
2023-05-10T13:39:41.905Z,100238.03
2023-05-10T13:42:44.572Z,100236.69
2023-05-10T13:45:47.232Z,100243.59
2023-05-10T13:48:49.753Z,100238.03
2023-05-10T13:51:53.115Z,100244.75
2023-05-10T13:54:58.491Z,100233.34
2023-05-10T13:58:01.270Z,100229.66
2023-05-10T14:01:04.051Z,100233.09
2023-05-10T14:04:08.773Z,100224.38
2023-05-10T14:07:11.531Z,100219.84
2023-05-10T14:10:14.083Z,100226.94
2023-05-10T14:13:16.733Z,100219.94
2023-05-10T14:16:19.427Z,100227.25
2023-05-10T14:19:21.999Z,100212.72
2023-05-10T14:22:24.732Z,100216.84
2023-05-10T14:25:27.298Z,100214.09
2023-05-10T14:28:29.884Z,100213.19
2023-05-10T14:31:32.837Z,100216.56
2023-05-10T14:34:35.498Z,100207.22
2023-05-10T14:37:38.733Z,100212.12
2023-05-10T14:40:41.328Z,100200.81
2023-05-10T14:43:43.837Z,100195.47
2023-05-10T14:46:46.395Z,100192.69
2023-05-10T14:49:48.944Z,100205.97
2023-05-10T14:52:51.597Z,100208.50
2023-05-10T14:55:54.161Z,100209.50
